Broadview, Canada
Current Conditions -  °F | °C
As of 9:03 AM on Sunday 23 Nov 2014 (Local Time) from CYQV Reporting Station
Light Snow Light Snow  
Wind Chill: -11°   Ceiling: 4900
Heat Index:   Visibility: 9mi
Dew Point:   Wind: 20mph
Humidity: 79%   Direction: 340°NNW
Pressure: 29.64"   Gusts: 26mph
Location:  50.38°N, 102.58°W
Report Text: CYQV 231503Z AUTO 34017G23KT 9SM -SN OVC049 M13/M16 A2964 RMK SLP072
Loading
Personal Weather Stations






























Interactive Weather Map New forecast layout! Learn more

10-Day Weather Forecast

Advertisements
Track Severe Weather on mobile